createdAt,value
2018-12-25T00:00:35.336Z,2.39
2018-12-25T00:03:04.733Z,2.32
2018-12-25T00:05:34.346Z,2.54
2018-12-25T00:08:03.874Z,2.62
2018-12-25T00:10:33.210Z,2.39
2018-12-25T00:13:02.505Z,2.49
2018-12-25T00:15:32.183Z,2.61
2018-12-25T00:18:01.481Z,2.66
2018-12-25T00:20:30.817Z,2.50
2018-12-25T00:23:00.181Z,2.64
2018-12-25T00:25:29.590Z,2.70
2018-12-25T00:27:58.885Z,2.59
2018-12-25T00:30:28.395Z,2.54
2018-12-25T00:32:57.708Z,2.27
2018-12-25T00:35:27.158Z,2.73
2018-12-25T00:37:56.504Z,2.71
2018-12-25T00:40:25.832Z,2.52
2018-12-25T00:42:55.270Z,2.44
2018-12-25T00:45:24.529Z,2.47
2018-12-25T00:47:53.867Z,2.43
2018-12-25T00:50:23.207Z,2.32
2018-12-25T00:52:52.835Z,2.20
2018-12-25T00:55:22.188Z,2.07
2018-12-25T00:57:51.520Z,2.13
2018-12-25T01:00:20.813Z,2.35
2018-12-25T01:02:50.199Z,2.65
2018-12-25T01:05:19.495Z,2.75
2018-12-25T01:07:48.813Z,2.88
2018-12-25T01:10:18.163Z,2.85
2018-12-25T01:12:47.492Z,2.75
2018-12-25T01:15:16.795Z,2.82
2018-12-25T01:17:46.117Z,2.97
2018-12-25T01:20:15.438Z,2.98
2018-12-25T01:22:44.740Z,3.08
2018-12-25T01:25:14.172Z,3.04
2018-12-25T01:27:43.482Z,2.90
2018-12-25T01:30:12.787Z,3.05
2018-12-25T01:32:42.287Z,3.04
2018-12-25T01:35:11.600Z,2.96
2018-12-25T01:37:40.923Z,3.04
2018-12-25T01:40:10.249Z,3.01
2018-12-25T01:42:39.543Z,2.94
2018-12-25T01:45:08.852Z,2.98
2018-12-25T01:47:38.172Z,3.08
2018-12-25T01:50:07.471Z,3.04
2018-12-25T01:52:36.799Z,2.98
2018-12-25T01:55:07.126Z,2.99
2018-12-25T01:57:36.464Z,3.10
2018-12-25T02:00:06.979Z,3.16
2018-12-25T02:02:36.458Z,3.19
2018-12-25T02:05:05.855Z,2.99
2018-12-25T02:07:35.313Z,3.07
2018-12-25T02:10:05.268Z,3.20
2018-12-25T02:12:34.586Z,3.23
2018-12-25T02:15:04.688Z,3.36
2018-12-25T02:17:33.999Z,3.31
2018-12-25T02:20:04.304Z,3.29
2018-12-25T02:22:33.758Z,3.34
2018-12-25T02:25:03.130Z,3.33
2018-12-25T02:27:32.939Z,3.30
2018-12-25T02:30:02.222Z,3.29
2018-12-25T02:32:31.545Z,3.36
2018-12-25T02:35:00.864Z,3.37
2018-12-25T02:37:30.161Z,3.38
2018-12-25T02:39:59.959Z,3.44
2018-12-25T02:42:29.210Z,3.62
2018-12-25T02:44:58.529Z,3.62
2018-12-25T02:47:27.840Z,3.58
2018-12-25T02:49:57.152Z,3.66
2018-12-25T02:52:26.462Z,3.62
2018-12-25T02:54:55.740Z,3.68
2018-12-25T02:57:25.050Z,3.82
2018-12-25T02:59:54.321Z,3.66
2018-12-25T03:02:23.694Z,3.57
2018-12-25T03:04:52.921Z,3.71
2018-12-25T03:07:22.504Z,3.80
2018-12-25T03:09:51.828Z,3.96
2018-12-25T03:12:21.157Z,3.91
2018-12-25T03:14:50.538Z,3.90
2018-12-25T03:17:19.861Z,3.75
2018-12-25T03:19:49.149Z,3.86
2018-12-25T03:22:18.455Z,3.93
2018-12-25T03:24:47.739Z,3.87
2018-12-25T03:27:17.056Z,3.94
2018-12-25T03:29:46.341Z,3.84
2018-12-25T03:32:15.663Z,3.70
2018-12-25T03:34:45.008Z,3.67
2018-12-25T03:37:14.327Z,3.79
2018-12-25T03:39:43.808Z,4.03
2018-12-25T03:42:13.112Z,4.11
2018-12-25T03:44:42.507Z,3.92
2018-12-25T03:47:11.991Z,3.99
2018-12-25T03:49:41.314Z,3.85
2018-12-25T03:52:10.633Z,3.92
2018-12-25T03:54:39.941Z,4.07
2018-12-25T03:57:09.229Z,3.98
2018-12-25T03:59:38.538Z,4.05
2018-12-25T04:02:07.813Z,3.94
2018-12-25T04:04:37.116Z,3.98
2018-12-25T04:07:06.668Z,4.08
2018-12-25T04:09:35.970Z,3.89
2018-12-25T04:12:05.364Z,3.80
2018-12-25T04:14:34.710Z,3.75
2018-12-25T04:17:04.086Z,3.73
2018-12-25T04:19:33.378Z,3.64
2018-12-25T04:22:02.697Z,3.57
2018-12-25T04:24:32.035Z,3.73
2018-12-25T04:27:01.342Z,3.81
2018-12-25T04:29:30.915Z,3.76
2018-12-25T04:32:00.297Z,3.99
2018-12-25T04:34:29.608Z,3.88
2018-12-25T04:36:58.912Z,3.99
2018-12-25T04:39:28.363Z,3.93
2018-12-25T04:41:57.666Z,3.95
2018-12-25T04:44:26.951Z,3.96
2018-12-25T04:46:56.279Z,3.87
2018-12-25T04:49:25.558Z,3.83
2018-12-25T04:51:54.935Z,3.90
2018-12-25T04:54:24.213Z,3.79
2018-12-25T04:56:53.622Z,3.98
2018-12-25T04:59:22.883Z,3.95
2018-12-25T05:01:52.393Z,3.83
2018-12-25T05:04:21.682Z,3.84
2018-12-25T05:06:51.181Z,3.70
2018-12-25T05:09:20.516Z,3.74
2018-12-25T05:11:49.833Z,3.82
2018-12-25T05:14:19.433Z,3.90
2018-12-25T05:16:48.750Z,3.90
2018-12-25T05:19:18.076Z,3.98
2018-12-25T05:21:47.464Z,3.94
2018-12-25T05:24:16.789Z,3.95
2018-12-25T05:26:46.105Z,3.77
2018-12-25T05:29:15.386Z,3.91
2018-12-25T05:31:44.690Z,3.88
2018-12-25T05:34:13.969Z,3.96
2018-12-25T05:36:43.280Z,3.89
2018-12-25T05:39:12.605Z,4.07
2018-12-25T05:41:41.911Z,3.99
2018-12-25T05:44:11.196Z,4.07
2018-12-25T05:46:40.503Z,4.02
2018-12-25T05:49:09.821Z,4.02
2018-12-25T05:51:39.112Z,3.94
2018-12-25T05:54:08.431Z,3.82
2018-12-25T05:56:37.729Z,3.91
2018-12-25T05:59:07.015Z,3.93
2018-12-25T06:01:36.321Z,3.72
2018-12-25T06:04:05.604Z,3.83
2018-12-25T06:06:35.355Z,4.05
2018-12-25T06:09:06.975Z,4.02
2018-12-25T06:11:36.282Z,4.06
2018-12-25T06:14:05.579Z,4.04
2018-12-25T06:16:34.894Z,4.08
2018-12-25T06:19:04.168Z,4.18
2018-12-25T06:21:33.470Z,4.21
2018-12-25T06:24:02.770Z,4.08
2018-12-25T06:26:32.072Z,4.15
2018-12-25T06:29:01.373Z,4.25
2018-12-25T06:31:30.683Z,4.24
2018-12-25T06:34:00.036Z,4.23
2018-12-25T06:36:29.355Z,4.12
2018-12-25T06:38:58.810Z,4.14
2018-12-25T06:41:28.136Z,4.05
2018-12-25T06:43:57.662Z,4.04
2018-12-25T06:46:27.189Z,4.03
2018-12-25T06:48:56.477Z,3.92
2018-12-25T06:51:25.996Z,3.72
2018-12-25T06:53:55.293Z,3.83
2018-12-25T06:56:24.595Z,3.79
2018-12-25T06:58:53.897Z,4.03
2018-12-25T07:01:23.211Z,4.01
2018-12-25T07:03:52.503Z,3.80
2018-12-25T07:06:21.811Z,3.67
2018-12-25T07:08:51.104Z,3.82
2018-12-25T07:11:20.419Z,3.93
2018-12-25T07:13:49.692Z,3.96
2018-12-25T07:16:18.995Z,3.92
2018-12-25T07:18:48.303Z,3.91
2018-12-25T07:21:17.585Z,3.86
2018-12-25T07:23:48.513Z,4.03
2018-12-25T07:26:17.819Z,3.86
2018-12-25T07:28:47.132Z,3.50
2018-12-25T07:31:16.439Z,3.74
2018-12-25T07:33:45.740Z,3.88
2018-12-25T07:36:15.051Z,3.85
2018-12-25T07:38:44.336Z,3.83
2018-12-25T07:41:13.631Z,3.54
2018-12-25T07:43:42.965Z,3.38
2018-12-25T07:46:12.243Z,3.39
2018-12-25T07:48:41.565Z,3.39
2018-12-25T07:51:10.858Z,3.57
2018-12-25T07:53:40.615Z,3.87
2018-12-25T07:56:09.924Z,4.01
2018-12-25T07:58:39.498Z,3.91
2018-12-25T08:01:08.809Z,3.86
2018-12-25T08:03:38.096Z,3.47
2018-12-25T08:06:07.438Z,3.88
2018-12-25T08:08:36.724Z,3.95
2018-12-25T08:11:06.067Z,3.87
2018-12-25T08:13:35.515Z,3.96
2018-12-25T08:16:04.995Z,3.95
2018-12-25T08:18:34.295Z,3.91
2018-12-25T08:21:03.782Z,3.90
2018-12-25T08:23:33.077Z,4.06
2018-12-25T08:26:02.384Z,4.06
2018-12-25T08:28:31.697Z,4.13
2018-12-25T08:31:01.299Z,4.21
2018-12-25T08:33:30.607Z,4.40
2018-12-25T08:35:59.901Z,4.38
2018-12-25T08:38:29.190Z,4.25
2018-12-25T08:40:58.516Z,4.34
2018-12-25T08:43:27.845Z,4.27
2018-12-25T08:45:57.169Z,4.18
2018-12-25T08:48:26.458Z,4.14
2018-12-25T08:50:55.793Z,4.23
2018-12-25T08:53:25.103Z,4.33
2018-12-25T08:55:54.407Z,4.44
2018-12-25T08:58:23.707Z,4.54
2018-12-25T09:00:53.062Z,4.52
2018-12-25T09:03:22.364Z,4.56
2018-12-25T09:05:51.686Z,4.53
2018-12-25T09:08:21.171Z,4.39
2018-12-25T09:10:50.493Z,4.28
2018-12-25T09:13:19.785Z,4.23
2018-12-25T09:15:49.073Z,4.22
2018-12-25T09:18:18.375Z,4.43
2018-12-25T09:20:47.651Z,4.75
2018-12-25T09:23:16.964Z,4.85
2018-12-25T09:25:46.403Z,5.01
2018-12-25T09:28:15.731Z,5.01
2018-12-25T09:30:45.014Z,5.21
2018-12-25T09:33:14.435Z,5.15
2018-12-25T09:35:43.748Z,5.35
2018-12-25T09:38:13.267Z,5.33
2018-12-25T09:40:42.611Z,5.16
2018-12-25T09:43:11.881Z,5.51
2018-12-25T09:45:41.292Z,5.57
2018-12-25T09:48:13.410Z,5.65
2018-12-25T09:50:41.728Z,5.78
2018-12-25T09:53:11.019Z,5.78
2018-12-25T09:55:40.312Z,6.22
2018-12-25T09:58:09.606Z,6.53
2018-12-25T10:00:38.929Z,7.35
2018-12-25T10:03:08.208Z,8.15
2018-12-25T10:05:37.540Z,8.15
2018-12-25T10:08:06.834Z,8.27
2018-12-25T10:10:36.387Z,9.10
2018-12-25T10:13:05.665Z,10.14
2018-12-25T10:15:35.134Z,9.75
2018-12-25T10:18:04.430Z,9.61
2018-12-25T10:20:33.827Z,10.14
2018-12-25T10:23:03.105Z,9.26
2018-12-25T10:25:32.395Z,8.83
2018-12-25T10:28:01.678Z,8.69
2018-12-25T10:30:31.005Z,8.17
2018-12-25T10:33:00.300Z,8.65
2018-12-25T10:35:30.559Z,8.53
2018-12-25T10:37:59.945Z,8.48
2018-12-25T10:40:29.239Z,8.44
2018-12-25T10:42:58.766Z,8.61
2018-12-25T10:45:28.057Z,7.89
2018-12-25T10:47:57.447Z,7.95
2018-12-25T10:50:26.749Z,7.79
2018-12-25T10:52:56.076Z,7.88
2018-12-25T10:55:25.514Z,7.73
2018-12-25T10:57:54.833Z,7.49
2018-12-25T11:00:24.183Z,7.58
2018-12-25T11:02:53.613Z,7.78
2018-12-25T11:05:22.907Z,7.71
2018-12-25T11:07:52.417Z,7.78
2018-12-25T11:10:21.721Z,7.78
2018-12-25T11:12:51.055Z,7.85
2018-12-25T11:15:20.409Z,7.68
2018-12-25T11:17:49.779Z,7.79
2018-12-25T11:20:19.183Z,7.65
2018-12-25T11:22:48.568Z,7.75
2018-12-25T11:25:17.896Z,7.59
2018-12-25T11:27:47.197Z,7.72
2018-12-25T11:30:16.548Z,7.86
2018-12-25T11:32:45.855Z,7.74
2018-12-25T11:35:15.159Z,7.56
2018-12-25T11:37:44.640Z,7.57
2018-12-25T11:40:13.999Z,7.59
2018-12-25T11:42:43.233Z,7.42
2018-12-25T11:45:12.554Z,7.47
2018-12-25T11:47:41.913Z,7.47
2018-12-25T11:50:11.258Z,7.58
2018-12-25T11:52:40.544Z,7.55
2018-12-25T11:55:09.882Z,7.63
2018-12-25T11:57:39.213Z,7.59
2018-12-25T12:00:09.220Z,7.59
2018-12-25T12:02:38.482Z,7.88
2018-12-25T12:05:07.822Z,7.90
2018-12-25T12:07:37.137Z,7.68
2018-12-25T12:10:09.061Z,7.70
2018-12-25T12:12:38.394Z,7.66
2018-12-25T12:15:08.182Z,7.40
2018-12-25T12:17:37.502Z,7.30
2018-12-25T12:20:07.559Z,7.01
2018-12-25T12:22:37.391Z,7.01
2018-12-25T12:25:06.838Z,6.91
2018-12-25T12:27:37.426Z,6.91
2018-12-25T12:30:07.662Z,6.87
2018-12-25T12:32:36.976Z,6.91
2018-12-25T12:35:06.345Z,6.91
2018-12-25T12:37:35.637Z,7.02
2018-12-25T12:40:07.158Z,6.94
2018-12-25T12:42:36.500Z,6.95
2018-12-25T12:45:07.729Z,6.83
2018-12-25T12:47:37.041Z,6.83
2018-12-25T12:50:08.868Z,6.88
2018-12-25T12:52:45.238Z,6.89
2018-12-25T12:55:09.189Z,6.88
2018-12-25T12:57:38.515Z,7.18
2018-12-25T13:00:08.516Z,6.99
2018-12-25T13:02:37.824Z,7.01
2018-12-25T13:05:07.814Z,6.95
2018-12-25T13:07:37.124Z,7.17
2018-12-25T13:10:07.302Z,6.92
2018-12-25T13:12:36.831Z,6.92
2018-12-25T13:15:07.278Z,7.11
2018-12-25T13:17:36.759Z,7.11
2018-12-25T13:20:06.525Z,6.86
2018-12-25T13:22:36.006Z,6.76
2018-12-25T13:25:05.464Z,6.77
2018-12-25T13:27:35.018Z,6.70
2018-12-25T13:30:07.593Z,6.70
2018-12-25T13:32:36.886Z,6.65
2018-12-25T13:35:06.292Z,6.69
2018-12-25T13:37:35.571Z,6.66
2018-12-25T13:40:05.917Z,6.60
2018-12-25T13:42:35.203Z,6.65
2018-12-25T13:45:05.109Z,6.68
2018-12-25T13:47:34.405Z,6.59
2018-12-25T13:50:04.192Z,6.91
2018-12-25T13:52:33.492Z,6.72
2018-12-25T13:55:02.808Z,6.72
2018-12-25T13:57:32.097Z,6.75
2018-12-25T14:00:01.410Z,6.60
2018-12-25T14:02:30.729Z,6.60
2018-12-25T14:05:00.003Z,6.63
2018-12-25T14:07:29.346Z,6.63
2018-12-25T14:09:58.598Z,6.51
2018-12-25T14:12:27.919Z,6.51
2018-12-25T14:14:57.228Z,6.46
2018-12-25T14:17:26.559Z,6.69
2018-12-25T14:19:55.832Z,6.68
2018-12-25T14:22:25.154Z,6.68
2018-12-25T14:24:54.459Z,6.53
2018-12-25T14:27:23.771Z,6.49
2018-12-25T14:29:53.099Z,6.76
2018-12-25T14:32:22.400Z,6.56
2018-12-25T14:34:51.736Z,6.61
2018-12-25T14:37:21.048Z,6.60
2018-12-25T14:39:50.350Z,6.40
2018-12-25T14:42:19.637Z,6.41
2018-12-25T14:44:48.945Z,6.32
2018-12-25T14:47:18.240Z,6.56
2018-12-25T14:49:47.692Z,6.45
2018-12-25T14:52:16.973Z,6.81
2018-12-25T14:54:46.272Z,6.58
2018-12-25T14:57:15.586Z,6.21
2018-12-25T14:59:45.181Z,6.35
2018-12-25T15:02:14.476Z,6.62
2018-12-25T15:04:44.039Z,6.54
2018-12-25T15:07:13.354Z,6.95
2018-12-25T15:09:42.665Z,6.82
2018-12-25T15:12:12.260Z,6.86
2018-12-25T15:14:41.955Z,6.86
2018-12-25T15:17:11.246Z,6.72
2018-12-25T15:19:40.564Z,6.65
2018-12-25T15:22:09.871Z,6.76
2018-12-25T15:24:39.298Z,6.77
2018-12-25T15:27:08.612Z,6.84
2018-12-25T15:29:37.925Z,6.66
2018-12-25T15:32:07.255Z,6.75
2018-12-25T15:34:36.545Z,6.79
2018-12-25T15:37:05.856Z,6.87
2018-12-25T15:39:35.183Z,6.94
2018-12-25T15:42:04.490Z,6.79
2018-12-25T15:44:33.778Z,6.56
2018-12-25T15:47:03.395Z,6.44
2018-12-25T15:49:32.768Z,6.47
2018-12-25T15:52:02.172Z,6.57
2018-12-25T15:54:31.491Z,6.48
2018-12-25T15:57:00.756Z,6.36
2018-12-25T15:59:30.069Z,6.44
2018-12-25T16:01:59.348Z,6.39
2018-12-25T16:04:28.656Z,6.45
2018-12-25T16:06:57.967Z,6.49
2018-12-25T16:09:27.287Z,6.55
2018-12-25T16:11:56.611Z,6.27
2018-12-25T16:14:25.900Z,6.31
2018-12-25T16:16:55.211Z,6.31
2018-12-25T16:19:24.537Z,6.19
2018-12-25T16:21:53.820Z,5.92
2018-12-25T16:24:27.391Z,5.71
2018-12-25T16:26:54.519Z,5.61
2018-12-25T16:29:23.832Z,5.45
2018-12-25T16:31:53.560Z,5.38
2018-12-25T16:34:22.865Z,5.33
2018-12-25T16:36:52.350Z,5.24
2018-12-25T16:39:21.640Z,5.21
2018-12-25T16:41:50.943Z,5.23
2018-12-25T16:44:20.230Z,5.46
2018-12-25T16:46:49.547Z,5.50
2018-12-25T16:49:18.834Z,5.68
2018-12-25T16:51:48.166Z,5.82
2018-12-25T16:54:17.447Z,5.85
2018-12-25T16:56:46.777Z,5.90
2018-12-25T16:59:16.118Z,5.73
2018-12-25T17:01:45.420Z,5.68
2018-12-25T17:04:14.747Z,5.72
2018-12-25T17:06:44.079Z,5.66
2018-12-25T17:09:13.381Z,5.70
2018-12-25T17:11:42.677Z,5.66
2018-12-25T17:14:12.066Z,5.90
2018-12-25T17:16:41.347Z,5.83
2018-12-25T17:19:10.666Z,5.79
2018-12-25T17:21:39.961Z,5.69
2018-12-25T17:24:09.279Z,5.59
2018-12-25T17:26:38.562Z,5.49
2018-12-25T17:29:07.884Z,5.27
2018-12-25T17:31:37.194Z,5.43
2018-12-25T17:34:06.524Z,5.37
2018-12-25T17:36:36.038Z,5.30
2018-12-25T17:39:07.268Z,5.52
2018-12-25T17:41:36.590Z,5.59
2018-12-25T17:44:05.894Z,5.64
2018-12-25T17:46:35.190Z,5.55
2018-12-25T17:49:04.578Z,5.46
2018-12-25T17:51:33.870Z,5.45
2018-12-25T17:54:10.512Z,5.39
2018-12-25T17:56:37.977Z,5.13
2018-12-25T17:59:05.176Z,5.06
2018-12-25T18:01:34.498Z,4.94
2018-12-25T18:04:04.087Z,5.22
2018-12-25T18:06:33.436Z,5.10
2018-12-25T18:09:03.265Z,5.07
2018-12-25T18:11:33.155Z,5.00
2018-12-25T18:14:02.930Z,5.03
2018-12-25T18:16:32.217Z,4.98
2018-12-25T18:19:01.589Z,4.78
2018-12-25T18:21:30.927Z,4.87
2018-12-25T18:24:01.106Z,4.65
2018-12-25T18:26:30.413Z,4.63
2018-12-25T18:28:59.749Z,4.67
2018-12-25T18:31:29.034Z,4.62
2018-12-25T18:33:58.351Z,4.57
2018-12-25T18:36:27.774Z,4.70
2018-12-25T18:38:57.088Z,4.64
2018-12-25T18:41:26.398Z,4.48
2018-12-25T18:43:55.780Z,4.37
2018-12-25T18:46:25.088Z,4.58
2018-12-25T18:48:54.409Z,4.44
2018-12-25T18:51:23.730Z,4.37
2018-12-25T18:53:53.023Z,4.34
2018-12-25T18:56:22.348Z,4.13
2018-12-25T18:58:51.657Z,4.06
2018-12-25T19:01:20.977Z,4.18
2018-12-25T19:03:50.278Z,4.07
2018-12-25T19:06:19.608Z,4.06
2018-12-25T19:08:48.898Z,4.08
2018-12-25T19:11:18.270Z,4.13
2018-12-25T19:13:47.590Z,4.24
2018-12-25T19:16:17.057Z,4.17
2018-12-25T19:18:46.398Z,3.85
2018-12-25T19:21:15.722Z,3.65
2018-12-25T19:23:48.065Z,3.54
2018-12-25T19:26:17.372Z,3.67
2018-12-25T19:28:46.905Z,3.76
2018-12-25T19:31:16.183Z,3.57
2018-12-25T19:33:45.487Z,3.47
2018-12-25T19:36:14.810Z,3.26
2018-12-25T19:38:44.173Z,3.38
2018-12-25T19:41:13.493Z,3.39
2018-12-25T19:43:42.805Z,3.23
2018-12-25T19:46:12.130Z,3.00
2018-12-25T19:48:41.445Z,2.96
2018-12-25T19:51:10.749Z,3.12
2018-12-25T19:53:40.160Z,3.16
2018-12-25T19:56:09.456Z,3.09
2018-12-25T19:58:38.857Z,3.04
2018-12-25T20:01:08.537Z,3.21
2018-12-25T20:03:40.422Z,3.04
2018-12-25T20:06:38.207Z,3.11
2018-12-25T20:09:19.751Z,3.14
2018-12-25T20:11:52.138Z,2.96
2018-12-25T20:14:41.180Z,2.81
2018-12-25T20:17:19.512Z,2.88
2018-12-25T20:20:13.042Z,2.80
2018-12-25T20:22:56.694Z,2.90
2018-12-25T20:25:29.076Z,2.75
2018-12-25T20:28:01.450Z,2.67
2018-12-25T20:31:07.353Z,2.64
2018-12-25T20:33:40.117Z,2.76
2018-12-25T20:36:18.223Z,2.58
2018-12-25T20:38:56.282Z,2.64
2018-12-25T20:41:28.660Z,2.40
2018-12-25T20:44:32.842Z,2.58
2018-12-25T20:47:17.232Z,2.58
2018-12-25T20:50:06.210Z,2.40
2018-12-25T20:52:54.788Z,2.50
2018-12-25T20:55:36.389Z,2.49
2018-12-25T20:58:25.281Z,2.45
2018-12-25T21:01:12.449Z,2.40
2018-12-25T21:04:08.911Z,2.26
2018-12-25T21:07:05.548Z,1.95
2018-12-25T21:09:49.688Z,1.76
2018-12-25T21:12:41.517Z,1.89
2018-12-25T21:15:34.721Z,2.02
2018-12-25T21:18:29.444Z,1.68
2018-12-25T21:21:13.670Z,1.75
2018-12-25T21:24:19.608Z,1.92
2018-12-25T21:27:25.224Z,1.67
2018-12-25T21:29:54.526Z,1.61
2018-12-25T21:32:24.503Z,1.73
2018-12-25T21:34:56.976Z,1.88
2018-12-25T21:37:26.942Z,2.02
2018-12-25T21:39:56.308Z,1.80
2018-12-25T21:42:26.380Z,1.76
2018-12-25T21:44:57.167Z,1.91
2018-12-25T21:47:26.561Z,1.75
2018-12-25T21:49:56.030Z,1.64
2018-12-25T21:52:25.564Z,1.51
2018-12-25T21:54:55.524Z,1.53
2018-12-25T21:57:25.165Z,1.72
2018-12-25T21:59:55.329Z,1.69
2018-12-25T22:02:24.720Z,1.51
2018-12-25T22:04:54.211Z,1.32
2018-12-25T22:07:23.606Z,1.30
2018-12-25T22:09:52.925Z,1.37
2018-12-25T22:12:22.216Z,1.42
2018-12-25T22:14:51.542Z,1.38
2018-12-25T22:17:20.906Z,1.26
2018-12-25T22:19:50.300Z,1.11
2018-12-25T22:22:19.825Z,0.91
2018-12-25T22:24:49.143Z,0.83
2018-12-25T22:27:18.465Z,0.76
2018-12-25T22:29:47.761Z,0.70
2018-12-25T22:32:17.084Z,0.78
2018-12-25T22:34:46.420Z,0.78
2018-12-25T22:37:15.745Z,0.77
2018-12-25T22:39:45.047Z,0.83
2018-12-25T22:42:14.372Z,0.87
2018-12-25T22:44:43.719Z,0.80
2018-12-25T22:47:13.037Z,0.85
2018-12-25T22:49:42.373Z,0.91
2018-12-25T22:52:11.820Z,0.65
2018-12-25T22:54:41.100Z,0.57
2018-12-25T22:57:10.393Z,0.58
2018-12-25T22:59:39.731Z,0.43
2018-12-25T23:02:09.089Z,0.29
2018-12-25T23:04:38.422Z,0.18
2018-12-25T23:07:07.741Z,0.29
2018-12-25T23:09:37.209Z,0.44
2018-12-25T23:12:06.544Z,0.43
2018-12-25T23:14:35.836Z,0.41
2018-12-25T23:17:05.154Z,0.32
2018-12-25T23:19:34.448Z,0.52
2018-12-25T23:22:03.769Z,0.53
2018-12-25T23:24:33.082Z,0.49
2018-12-25T23:27:02.479Z,0.34
2018-12-25T23:29:31.791Z,0.28
2018-12-25T23:32:01.123Z,0.33
2018-12-25T23:34:30.446Z,0.40
2018-12-25T23:36:59.792Z,0.49
2018-12-25T23:39:29.115Z,0.33
2018-12-25T23:41:59.518Z,0.37
2018-12-25T23:44:29.006Z,0.29
2018-12-25T23:46:58.338Z,0.13
2018-12-25T23:49:27.662Z,0.18
2018-12-25T23:51:56.976Z,0.06
2018-12-25T23:54:26.314Z,0.05
2018-12-25T23:56:55.800Z,-0.07
2018-12-25T23:59:25.124Z,-0.08
